sensor_id;sensor_type;location;lat;lon;timestamp;P1;durP1;ratioP1;P2;durP2;ratioP2
11829;SDS011;5972;42.134;24.718;2023-04-24T00:01:55;6.18;;;5.10;;
11829;SDS011;5972;42.134;24.718;2023-04-24T00:04:23;7.47;;;5.65;;
11829;SDS011;5972;42.134;24.718;2023-04-24T00:06:51;7.28;;;5.07;;
11829;SDS011;5972;42.134;24.718;2023-04-24T00:09:19;9.63;;;5.93;;
11829;SDS011;5972;42.134;24.718;2023-04-24T00:11:45;8.60;;;5.45;;
11829;SDS011;5972;42.134;24.718;2023-04-24T00:14:13;10.18;;;5.60;;
11829;SDS011;5972;42.134;24.718;2023-04-24T00:16:40;12.73;;;6.30;;
11829;SDS011;5972;42.134;24.718;2023-04-24T00:19:06;8.18;;;5.65;;
11829;SDS011;5972;42.134;24.718;2023-04-24T00:21:33;8.88;;;5.72;;
11829;SDS011;5972;42.134;24.718;2023-04-24T00:24:00;10.32;;;5.90;;
11829;SDS011;5972;42.134;24.718;2023-04-24T00:26:26;14.45;;;6.57;;
11829;SDS011;5972;42.134;24.718;2023-04-24T00:28:53;8.10;;;5.97;;
11829;SDS011;5972;42.134;24.718;2023-04-24T00:31:20;7.45;;;5.82;;
11829;SDS011;5972;42.134;24.718;2023-04-24T00:33:47;12.73;;;8.38;;
11829;SDS011;5972;42.134;24.718;2023-04-24T00:36:14;8.20;;;7.20;;
11829;SDS011;5972;42.134;24.718;2023-04-24T00:38:40;13.38;;;6.78;;
11829;SDS011;5972;42.134;24.718;2023-04-24T00:41:07;8.18;;;6.38;;
11829;SDS011;5972;42.134;24.718;2023-04-24T00:43:33;16.40;;;7.60;;
11829;SDS011;5972;42.134;24.718;2023-04-24T00:46:00;9.60;;;7.55;;
11829;SDS011;5972;42.134;24.718;2023-04-24T00:48:28;10.10;;;7.95;;
11829;SDS011;5972;42.134;24.718;2023-04-24T00:50:54;11.73;;;7.88;;
11829;SDS011;5972;42.134;24.718;2023-04-24T00:53:22;13.60;;;8.02;;
11829;SDS011;5972;42.134;24.718;2023-04-24T00:55:48;12.13;;;8.57;;
11829;SDS011;5972;42.134;24.718;2023-04-24T00:58:15;11.38;;;8.65;;
11829;SDS011;5972;42.134;24.718;2023-04-24T01:00:41;11.10;;;8.00;;
11829;SDS011;5972;42.134;24.718;2023-04-24T01:03:08;13.50;;;7.90;;
11829;SDS011;5972;42.134;24.718;2023-04-24T01:05:37;8.82;;;7.70;;
11829;SDS011;5972;42.134;24.718;2023-04-24T01:08:03;14.15;;;7.80;;
11829;SDS011;5972;42.134;24.718;2023-04-24T01:10:30;14.45;;;8.02;;
11829;SDS011;5972;42.134;24.718;2023-04-24T01:12:57;10.77;;;8.30;;
11829;SDS011;5972;42.134;24.718;2023-04-24T01:15:24;9.38;;;8.13;;
11829;SDS011;5972;42.134;24.718;2023-04-24T01:17:51;14.45;;;7.63;;
11829;SDS011;5972;42.134;24.718;2023-04-24T01:20:17;8.93;;;7.65;;
11829;SDS011;5972;42.134;24.718;2023-04-24T01:22:45;11.75;;;7.60;;
11829;SDS011;5972;42.134;24.718;2023-04-24T01:25:12;11.65;;;7.75;;
11829;SDS011;5972;42.134;24.718;2023-04-24T01:27:38;12.48;;;7.65;;
11829;SDS011;5972;42.134;24.718;2023-04-24T01:30:05;10.43;;;7.65;;
11829;SDS011;5972;42.134;24.718;2023-04-24T01:32:32;9.65;;;7.70;;
11829;SDS011;5972;42.134;24.718;2023-04-24T01:34:59;11.57;;;7.97;;
11829;SDS011;5972;42.134;24.718;2023-04-24T01:37:25;10.50;;;8.20;;
11829;SDS011;5972;42.134;24.718;2023-04-24T01:39:54;12.35;;;7.97;;
11829;SDS011;5972;42.134;24.718;2023-04-24T01:42:21;16.35;;;8.30;;
11829;SDS011;5972;42.134;24.718;2023-04-24T01:44:47;10.65;;;7.35;;
11829;SDS011;5972;42.134;24.718;2023-04-24T01:47:14;11.88;;;7.28;;
11829;SDS011;5972;42.134;24.718;2023-04-24T01:49:41;9.13;;;7.70;;
11829;SDS011;5972;42.134;24.718;2023-04-24T01:52:07;8.75;;;7.38;;
11829;SDS011;5972;42.134;24.718;2023-04-24T01:54:34;14.02;;;7.47;;
11829;SDS011;5972;42.134;24.718;2023-04-24T01:57:01;9.27;;;7.47;;
11829;SDS011;5972;42.134;24.718;2023-04-24T01:59:28;10.18;;;7.60;;
11829;SDS011;5972;42.134;24.718;2023-04-24T02:01:55;9.02;;;7.85;;
11829;SDS011;5972;42.134;24.718;2023-04-24T02:04:22;11.38;;;8.13;;
11829;SDS011;5972;42.134;24.718;2023-04-24T02:06:48;13.02;;;7.65;;
11829;SDS011;5972;42.134;24.718;2023-04-24T02:09:15;14.60;;;8.27;;
11829;SDS011;5972;42.134;24.718;2023-04-24T02:11:41;13.73;;;7.97;;
11829;SDS011;5972;42.134;24.718;2023-04-24T02:14:09;13.13;;;8.00;;
11829;SDS011;5972;42.134;24.718;2023-04-24T02:19:05;12.57;;;8.10;;
11829;SDS011;5972;42.134;24.718;2023-04-24T02:21:31;13.80;;;7.60;;
11829;SDS011;5972;42.134;24.718;2023-04-24T02:23:58;11.63;;;8.15;;
11829;SDS011;5972;42.134;24.718;2023-04-24T02:26:24;11.40;;;8.20;;
11829;SDS011;5972;42.134;24.718;2023-04-24T02:28:56;8.63;;;7.22;;
11829;SDS011;5972;42.134;24.718;2023-04-24T02:31:24;9.10;;;7.70;;
11829;SDS011;5972;42.134;24.718;2023-04-24T02:33:50;11.35;;;7.80;;
11829;SDS011;5972;42.134;24.718;2023-04-24T02:36:17;9.73;;;7.93;;
11829;SDS011;5972;42.134;24.718;2023-04-24T02:38:43;12.07;;;8.40;;
11829;SDS011;5972;42.134;24.718;2023-04-24T02:41:10;8.73;;;7.68;;
11829;SDS011;5972;42.134;24.718;2023-04-24T02:43:37;9.30;;;8.18;;
11829;SDS011;5972;42.134;24.718;2023-04-24T02:46:03;9.45;;;8.32;;
11829;SDS011;5972;42.134;24.718;2023-04-24T02:48:31;10.32;;;7.93;;
11829;SDS011;5972;42.134;24.718;2023-04-24T02:50:57;9.85;;;8.00;;
11829;SDS011;5972;42.134;24.718;2023-04-24T02:53:24;13.98;;;8.90;;
11829;SDS011;5972;42.134;24.718;2023-04-24T02:55:50;11.25;;;7.80;;
11829;SDS011;5972;42.134;24.718;2023-04-24T02:58:20;11.57;;;8.43;;
11829;SDS011;5972;42.134;24.718;2023-04-24T03:00:46;11.95;;;8.77;;
11829;SDS011;5972;42.134;24.718;2023-04-24T03:03:13;11.57;;;8.18;;
11829;SDS011;5972;42.134;24.718;2023-04-24T03:05:41;13.15;;;8.32;;
11829;SDS011;5972;42.134;24.718;2023-04-24T03:08:08;13.48;;;8.73;;
11829;SDS011;5972;42.134;24.718;2023-04-24T03:10:35;12.85;;;8.88;;
11829;SDS011;5972;42.134;24.718;2023-04-24T03:13:01;19.33;;;10.57;;
11829;SDS011;5972;42.134;24.718;2023-04-24T03:15:28;13.73;;;9.43;;
11829;SDS011;5972;42.134;24.718;2023-04-24T03:17:54;17.67;;;9.97;;
11829;SDS011;5972;42.134;24.718;2023-04-24T03:20:21;26.07;;;11.20;;
11829;SDS011;5972;42.134;24.718;2023-04-24T03:22:49;24.77;;;10.80;;
11829;SDS011;5972;42.134;24.718;2023-04-24T03:25:15;18.97;;;10.60;;
11829;SDS011;5972;42.134;24.718;2023-04-24T03:27:42;15.60;;;10.30;;
11829;SDS011;5972;42.134;24.718;2023-04-24T03:30:08;23.57;;;11.80;;
11829;SDS011;5972;42.134;24.718;2023-04-24T03:32:35;23.33;;;11.43;;
11829;SDS011;5972;42.134;24.718;2023-04-24T03:35:01;19.50;;;10.85;;
11829;SDS011;5972;42.134;24.718;2023-04-24T03:37:28;21.57;;;10.97;;
11829;SDS011;5972;42.134;24.718;2023-04-24T03:39:58;13.95;;;10.60;;
11829;SDS011;5972;42.134;24.718;2023-04-24T03:42:24;18.50;;;10.35;;
11829;SDS011;5972;42.134;24.718;2023-04-24T03:44:56;16.27;;;10.65;;
11829;SDS011;5972;42.134;24.718;2023-04-24T03:47:22;21.60;;;10.15;;
11829;SDS011;5972;42.134;24.718;2023-04-24T03:49:51;19.08;;;10.18;;
11829;SDS011;5972;42.134;24.718;2023-04-24T03:52:18;20.58;;;9.93;;
11829;SDS011;5972;42.134;24.718;2023-04-24T03:54:45;30.98;;;11.80;;
11829;SDS011;5972;42.134;24.718;2023-04-24T03:57:13;30.52;;;12.07;;
11829;SDS011;5972;42.134;24.718;2023-04-24T03:59:39;33.80;;;12.45;;
11829;SDS011;5972;42.134;24.718;2023-04-24T04:02:06;47.50;;;12.70;;
11829;SDS011;5972;42.134;24.718;2023-04-24T04:04:32;31.67;;;12.45;;
11829;SDS011;5972;42.134;24.718;2023-04-24T04:06:59;35.60;;;12.80;;
11829;SDS011;5972;42.134;24.718;2023-04-24T04:09:26;40.75;;;12.23;;
11829;SDS011;5972;42.134;24.718;2023-04-24T04:11:55;21.95;;;11.45;;
11829;SDS011;5972;42.134;24.718;2023-04-24T04:14:23;27.58;;;11.20;;
11829;SDS011;5972;42.134;24.718;2023-04-24T04:16:49;20.88;;;11.30;;
11829;SDS011;5972;42.134;24.718;2023-04-24T04:19:16;21.00;;;10.48;;
11829;SDS011;5972;42.134;24.718;2023-04-24T04:21:42;16.95;;;10.75;;
11829;SDS011;5972;42.134;24.718;2023-04-24T04:24:10;15.55;;;8.55;;
11829;SDS011;5972;42.134;24.718;2023-04-24T04:26:37;14.27;;;9.25;;
11829;SDS011;5972;42.134;24.718;2023-04-24T04:29:04;14.10;;;10.20;;
11829;SDS011;5972;42.134;24.718;2023-04-24T04:31:33;19.27;;;10.77;;
11829;SDS011;5972;42.134;24.718;2023-04-24T04:33:59;12.10;;;8.88;;
11829;SDS011;5972;42.134;24.718;2023-04-24T04:36:26;16.92;;;10.13;;
11829;SDS011;5972;42.134;24.718;2023-04-24T04:38:54;18.17;;;10.40;;
11829;SDS011;5972;42.134;24.718;2023-04-24T04:41:21;12.68;;;9.70;;
11829;SDS011;5972;42.134;24.718;2023-04-24T04:43:48;18.05;;;10.07;;
11829;SDS011;5972;42.134;24.718;2023-04-24T04:46:15;16.02;;;10.45;;
11829;SDS011;5972;42.134;24.718;2023-04-24T04:48:43;14.20;;;10.55;;
11829;SDS011;5972;42.134;24.718;2023-04-24T04:51:09;13.75;;;9.80;;
11829;SDS011;5972;42.134;24.718;2023-04-24T04:53:36;12.68;;;9.65;;
11829;SDS011;5972;42.134;24.718;2023-04-24T04:56:02;13.35;;;8.93;;
11829;SDS011;5972;42.134;24.718;2023-04-24T04:58:29;11.02;;;8.13;;
11829;SDS011;5972;42.134;24.718;2023-04-24T05:00:55;17.42;;;8.63;;
11829;SDS011;5972;42.134;24.718;2023-04-24T05:03:22;10.80;;;7.95;;
11829;SDS011;5972;42.134;24.718;2023-04-24T05:05:50;12.40;;;8.32;;
11829;SDS011;5972;42.134;24.718;2023-04-24T05:08:16;14.15;;;7.85;;
11829;SDS011;5972;42.134;24.718;2023-04-24T05:10:43;14.43;;;8.23;;
11829;SDS011;5972;42.134;24.718;2023-04-24T05:13:09;14.13;;;7.85;;
11829;SDS011;5972;42.134;24.718;2023-04-24T05:15:38;13.35;;;8.07;;
11829;SDS011;5972;42.134;24.718;2023-04-24T05:18:04;14.60;;;7.70;;
11829;SDS011;5972;42.134;24.718;2023-04-24T05:20:31;16.55;;;7.13;;
11829;SDS011;5972;42.134;24.718;2023-04-24T05:22:59;11.32;;;8.40;;
11829;SDS011;5972;42.134;24.718;2023-04-24T05:25:25;11.45;;;8.25;;
11829;SDS011;5972;42.134;24.718;2023-04-24T05:27:52;10.98;;;7.97;;
11829;SDS011;5972;42.134;24.718;2023-04-24T05:30:19;12.32;;;7.70;;
11829;SDS011;5972;42.134;24.718;2023-04-24T05:32:46;16.50;;;7.93;;
11829;SDS011;5972;42.134;24.718;2023-04-24T05:35:12;18.42;;;8.48;;
11829;SDS011;5972;42.134;24.718;2023-04-24T05:37:39;12.55;;;8.23;;
11829;SDS011;5972;42.134;24.718;2023-04-24T05:40:07;16.00;;;7.78;;
11829;SDS011;5972;42.134;24.718;2023-04-24T05:42:34;15.57;;;8.60;;
11829;SDS011;5972;42.134;24.718;2023-04-24T05:45:01;12.27;;;7.32;;
11829;SDS011;5972;42.134;24.718;2023-04-24T05:47:27;10.18;;;8.13;;
11829;SDS011;5972;42.134;24.718;2023-04-24T05:49:54;15.40;;;9.05;;
11829;SDS011;5972;42.134;24.718;2023-04-24T05:52:20;13.43;;;8.60;;
11829;SDS011;5972;42.134;24.718;2023-04-24T05:54:49;16.48;;;8.73;;
11829;SDS011;5972;42.134;24.718;2023-04-24T05:57:17;19.73;;;8.57;;
11829;SDS011;5972;42.134;24.718;2023-04-24T05:59:43;18.30;;;8.05;;
11829;SDS011;5972;42.134;24.718;2023-04-24T06:02:10;16.77;;;8.63;;
11829;SDS011;5972;42.134;24.718;2023-04-24T06:04:37;15.68;;;8.07;;
11829;SDS011;5972;42.134;24.718;2023-04-24T06:07:03;11.38;;;7.72;;
11829;SDS011;5972;42.134;24.718;2023-04-24T06:09:30;19.30;;;8.23;;
11829;SDS011;5972;42.134;24.718;2023-04-24T06:11:56;15.70;;;7.50;;
11829;SDS011;5972;42.134;24.718;2023-04-24T06:14:26;11.35;;;7.20;;
11829;SDS011;5972;42.134;24.718;2023-04-24T06:16:54;17.27;;;6.82;;
11829;SDS011;5972;42.134;24.718;2023-04-24T06:19:21;18.10;;;7.35;;
11829;SDS011;5972;42.134;24.718;2023-04-24T06:21:48;19.10;;;6.78;;
11829;SDS011;5972;42.134;24.718;2023-04-24T06:24:14;14.10;;;6.63;;
11829;SDS011;5972;42.134;24.718;2023-04-24T06:26:42;13.55;;;8.00;;
11829;SDS011;5972;42.134;24.718;2023-04-24T06:29:22;13.32;;;6.85;;
11829;SDS011;5972;42.134;24.718;2023-04-24T06:31:50;11.35;;;7.00;;
11829;SDS011;5972;42.134;24.718;2023-04-24T06:34:16;14.32;;;6.65;;
11829;SDS011;5972;42.134;24.718;2023-04-24T06:36:46;15.65;;;6.90;;
11829;SDS011;5972;42.134;24.718;2023-04-24T06:39:15;17.42;;;7.72;;
11829;SDS011;5972;42.134;24.718;2023-04-24T06:41:41;14.38;;;7.20;;
11829;SDS011;5972;42.134;24.718;2023-04-24T06:44:08;17.85;;;7.45;;
11829;SDS011;5972;42.134;24.718;2023-04-24T06:46:34;11.25;;;7.28;;
11829;SDS011;5972;42.134;24.718;2023-04-24T06:49:03;15.85;;;6.90;;
11829;SDS011;5972;42.134;24.718;2023-04-24T06:51:31;11.73;;;7.13;;
11829;SDS011;5972;42.134;24.718;2023-04-24T06:53:58;16.35;;;7.40;;
11829;SDS011;5972;42.134;24.718;2023-04-24T06:56:25;13.32;;;7.45;;
11829;SDS011;5972;42.134;24.718;2023-04-24T06:58:52;15.98;;;7.15;;
11829;SDS011;5972;42.134;24.718;2023-04-24T07:01:18;10.65;;;6.78;;
11829;SDS011;5972;42.134;24.718;2023-04-24T07:03:44;11.23;;;6.25;;
11829;SDS011;5972;42.134;24.718;2023-04-24T07:06:12;14.95;;;7.07;;
11829;SDS011;5972;42.134;24.718;2023-04-24T07:08:39;11.88;;;6.78;;
11829;SDS011;5972;42.134;24.718;2023-04-24T07:11:06;17.17;;;7.40;;
11829;SDS011;5972;42.134;24.718;2023-04-24T07:13:33;16.17;;;7.05;;
11829;SDS011;5972;42.134;24.718;2023-04-24T07:16:03;12.52;;;6.40;;
11829;SDS011;5972;42.134;24.718;2023-04-24T07:18:29;12.88;;;6.20;;
11829;SDS011;5972;42.134;24.718;2023-04-24T07:20:56;13.15;;;7.00;;
11829;SDS011;5972;42.134;24.718;2023-04-24T07:23:24;9.77;;;6.78;;
11829;SDS011;5972;42.134;24.718;2023-04-24T07:25:51;15.75;;;7.50;;
11829;SDS011;5972;42.134;24.718;2023-04-24T07:28:17;9.82;;;6.97;;
11829;SDS011;5972;42.134;24.718;2023-04-24T07:30:44;18.20;;;8.48;;
11829;SDS011;5972;42.134;24.718;2023-04-24T07:33:10;12.48;;;6.90;;
11829;SDS011;5972;42.134;24.718;2023-04-24T07:35:38;14.48;;;7.68;;
11829;SDS011;5972;42.134;24.718;2023-04-24T07:38:05;13.65;;;7.78;;
11829;SDS011;5972;42.134;24.718;2023-04-24T07:40:35;11.18;;;6.82;;
11829;SDS011;5972;42.134;24.718;2023-04-24T07:43:04;11.10;;;6.70;;
11829;SDS011;5972;42.134;24.718;2023-04-24T07:45:31;9.73;;;5.80;;
11829;SDS011;5972;42.134;24.718;2023-04-24T07:48:01;11.18;;;6.70;;
11829;SDS011;5972;42.134;24.718;2023-04-24T07:50:27;13.02;;;8.13;;
11829;SDS011;5972;42.134;24.718;2023-04-24T07:52:54;15.70;;;7.53;;
11829;SDS011;5972;42.134;24.718;2023-04-24T07:55:23;11.25;;;7.10;;
11829;SDS011;5972;42.134;24.718;2023-04-24T07:57:51;12.43;;;7.97;;
11829;SDS011;5972;42.134;24.718;2023-04-24T08:00:22;15.75;;;7.78;;
11829;SDS011;5972;42.134;24.718;2023-04-24T08:02:52;14.18;;;7.72;;
11829;SDS011;5972;42.134;24.718;2023-04-24T08:05:18;20.77;;;7.32;;
11829;SDS011;5972;42.134;24.718;2023-04-24T08:07:45;11.05;;;6.97;;
11829;SDS011;5972;42.134;24.718;2023-04-24T08:10:13;10.63;;;6.43;;
11829;SDS011;5972;42.134;24.718;2023-04-24T08:12:40;9.75;;;6.65;;
11829;SDS011;5972;42.134;24.718;2023-04-24T08:15:08;11.05;;;6.90;;
11829;SDS011;5972;42.134;24.718;2023-04-24T08:17:35;13.55;;;6.75;;
11829;SDS011;5972;42.134;24.718;2023-04-24T08:20:01;13.45;;;6.93;;
11829;SDS011;5972;42.134;24.718;2023-04-24T08:22:30;13.98;;;6.30;;
11829;SDS011;5972;42.134;24.718;2023-04-24T08:24:59;9.65;;;6.97;;
11829;SDS011;5972;42.134;24.718;2023-04-24T08:27:26;7.70;;;5.93;;
11829;SDS011;5972;42.134;24.718;2023-04-24T08:29:53;14.57;;;6.65;;
11829;SDS011;5972;42.134;24.718;2023-04-24T08:32:21;23.67;;;7.97;;
11829;SDS011;5972;42.134;24.718;2023-04-24T08:34:48;11.65;;;6.30;;
11829;SDS011;5972;42.134;24.718;2023-04-24T08:37:14;10.00;;;6.82;;
11829;SDS011;5972;42.134;24.718;2023-04-24T08:39:41;12.15;;;6.60;;
11829;SDS011;5972;42.134;24.718;2023-04-24T08:42:07;9.05;;;6.55;;
11829;SDS011;5972;42.134;24.718;2023-04-24T08:44:36;12.50;;;7.13;;
11829;SDS011;5972;42.134;24.718;2023-04-24T08:47:03;11.23;;;6.70;;
11829;SDS011;5972;42.134;24.718;2023-04-24T08:49:31;8.82;;;6.93;;
11829;SDS011;5972;42.134;24.718;2023-04-24T08:51:59;10.73;;;7.43;;
11829;SDS011;5972;42.134;24.718;2023-04-24T08:54:28;12.38;;;6.95;;
11829;SDS011;5972;42.134;24.718;2023-04-24T08:56:57;9.65;;;5.90;;
11829;SDS011;5972;42.134;24.718;2023-04-24T08:59:29;10.32;;;6.63;;
11829;SDS011;5972;42.134;24.718;2023-04-24T09:01:57;9.90;;;6.60;;
11829;SDS011;5972;42.134;24.718;2023-04-24T09:04:24;9.70;;;6.13;;
11829;SDS011;5972;42.134;24.718;2023-04-24T09:06:52;8.82;;;5.88;;
11829;SDS011;5972;42.134;24.718;2023-04-24T09:09:21;11.23;;;6.13;;
11829;SDS011;5972;42.134;24.718;2023-04-24T09:11:48;9.25;;;5.60;;
11829;SDS011;5972;42.134;24.718;2023-04-24T09:14:15;10.73;;;6.30;;
11829;SDS011;5972;42.134;24.718;2023-04-24T09:16:56;9.82;;;6.20;;
11829;SDS011;5972;42.134;24.718;2023-04-24T09:19:25;8.55;;;6.63;;
11829;SDS011;5972;42.134;24.718;2023-04-24T09:21:53;9.00;;;5.70;;
11829;SDS011;5972;42.134;24.718;2023-04-24T09:24:20;5.93;;;5.32;;
11829;SDS011;5972;42.134;24.718;2023-04-24T09:26:55;7.78;;;5.40;;
11829;SDS011;5972;42.134;24.718;2023-04-24T09:29:23;8.00;;;5.53;;
11829;SDS011;5972;42.134;24.718;2023-04-24T09:31:50;6.20;;;5.22;;
11829;SDS011;5972;42.134;24.718;2023-04-24T09:34:20;7.10;;;4.72;;
11829;SDS011;5972;42.134;24.718;2023-04-24T09:36:47;5.63;;;4.70;;
11829;SDS011;5972;42.134;24.718;2023-04-24T09:39:15;5.93;;;4.97;;
11829;SDS011;5972;42.134;24.718;2023-04-24T09:41:45;6.95;;;4.93;;
11829;SDS011;5972;42.134;24.718;2023-04-24T09:44:13;7.70;;;5.43;;
11829;SDS011;5972;42.134;24.718;2023-04-24T09:46:40;8.90;;;5.68;;
11829;SDS011;5972;42.134;24.718;2023-04-24T09:49:07;8.52;;;5.82;;
11829;SDS011;5972;42.134;24.718;2023-04-24T09:51:35;6.30;;;4.70;;
11829;SDS011;5972;42.134;24.718;2023-04-24T09:54:02;6.55;;;4.65;;
11829;SDS011;5972;42.134;24.718;2023-04-24T09:56:34;9.40;;;5.35;;
11829;SDS011;5972;42.134;24.718;2023-04-24T09:59:04;5.53;;;4.82;;
11829;SDS011;5972;42.134;24.718;2023-04-24T10:01:30;7.22;;;5.47;;
11829;SDS011;5972;42.134;24.718;2023-04-24T10:03:57;8.30;;;5.82;;
11829;SDS011;5972;42.134;24.718;2023-04-24T10:06:29;10.77;;;5.68;;
11829;SDS011;5972;42.134;24.718;2023-04-24T10:08:59;7.45;;;6.10;;
11829;SDS011;5972;42.134;24.718;2023-04-24T10:11:26;7.80;;;5.20;;
11829;SDS011;5972;42.134;24.718;2023-04-24T10:13:54;5.93;;;5.30;;
11829;SDS011;5972;42.134;24.718;2023-04-24T10:16:22;6.25;;;5.25;;
11829;SDS011;5972;42.134;24.718;2023-04-24T10:18:49;6.70;;;5.35;;
11829;SDS011;5972;42.134;24.718;2023-04-24T10:21:17;7.57;;;5.30;;
11829;SDS011;5972;42.134;24.718;2023-04-24T10:23:46;8.75;;;5.10;;
11829;SDS011;5972;42.134;24.718;2023-04-24T10:26:15;8.38;;;5.05;;
11829;SDS011;5972;42.134;24.718;2023-04-24T10:28:44;8.77;;;5.10;;
11829;SDS011;5972;42.134;24.718;2023-04-24T10:31:14;7.68;;;5.38;;
11829;SDS011;5972;42.134;24.718;2023-04-24T10:33:41;11.70;;;5.50;;
11829;SDS011;5972;42.134;24.718;2023-04-24T10:36:08;8.00;;;5.68;;
11829;SDS011;5972;42.134;24.718;2023-04-24T10:38:35;12.85;;;5.65;;
11829;SDS011;5972;42.134;24.718;2023-04-24T10:41:09;9.30;;;5.43;;
11829;SDS011;5972;42.134;24.718;2023-04-24T10:43:41;13.98;;;5.50;;
11829;SDS011;5972;42.134;24.718;2023-04-24T10:46:08;10.05;;;5.95;;
11829;SDS011;5972;42.134;24.718;2023-04-24T10:48:37;11.00;;;5.40;;
11829;SDS011;5972;42.134;24.718;2023-04-24T10:51:10;6.20;;;4.70;;
11829;SDS011;5972;42.134;24.718;2023-04-24T10:53:37;5.50;;;4.95;;
11829;SDS011;5972;42.134;24.718;2023-04-24T10:56:04;7.45;;;4.88;;
11829;SDS011;5972;42.134;24.718;2023-04-24T10:58:38;7.30;;;4.72;;
11829;SDS011;5972;42.134;24.718;2023-04-24T11:01:05;6.35;;;4.40;;
11829;SDS011;5972;42.134;24.718;2023-04-24T11:03:32;8.32;;;4.72;;
11829;SDS011;5972;42.134;24.718;2023-04-24T11:06:01;5.63;;;4.78;;
11829;SDS011;5972;42.134;24.718;2023-04-24T11:08:29;6.45;;;4.60;;
11829;SDS011;5972;42.134;24.718;2023-04-24T11:10:57;6.93;;;4.45;;
11829;SDS011;5972;42.134;24.718;2023-04-24T11:13:24;10.27;;;5.00;;
11829;SDS011;5972;42.134;24.718;2023-04-24T11:18:39;6.78;;;4.70;;
11829;SDS011;5972;42.134;24.718;2023-04-24T11:21:11;5.82;;;4.97;;
11829;SDS011;5972;42.134;24.718;2023-04-24T11:23:38;10.40;;;5.32;;
11829;SDS011;5972;42.134;24.718;2023-04-24T11:26:11;6.13;;;4.50;;
11829;SDS011;5972;42.134;24.718;2023-04-24T11:28:43;5.45;;;4.95;;
11829;SDS011;5972;42.134;24.718;2023-04-24T11:33:55;5.43;;;4.40;;
11829;SDS011;5972;42.134;24.718;2023-04-24T11:36:23;11.88;;;4.65;;
11829;SDS011;5972;42.134;24.718;2023-04-24T11:38:50;5.50;;;4.30;;
11829;SDS011;5972;42.134;24.718;2023-04-24T11:41:16;5.75;;;3.92;;
11829;SDS011;5972;42.134;24.718;2023-04-24T11:43:45;6.38;;;5.10;;
11829;SDS011;5972;42.134;24.718;2023-04-24T11:46:12;6.32;;;4.38;;
11829;SDS011;5972;42.134;24.718;2023-04-24T11:48:44;10.60;;;4.60;;
11829;SDS011;5972;42.134;24.718;2023-04-24T11:51:11;4.55;;;4.10;;
11829;SDS011;5972;42.134;24.718;2023-04-24T11:53:39;6.07;;;4.10;;
11829;SDS011;5972;42.134;24.718;2023-04-24T11:56:06;7.55;;;4.20;;
11829;SDS011;5972;42.134;24.718;2023-04-24T11:58:34;7.85;;;4.40;;
11829;SDS011;5972;42.134;24.718;2023-04-24T12:01:01;7.70;;;3.85;;
11829;SDS011;5972;42.134;24.718;2023-04-24T12:03:28;8.25;;;4.55;;
11829;SDS011;5972;42.134;24.718;2023-04-24T12:06:04;7.18;;;3.92;;
11829;SDS011;5972;42.134;24.718;2023-04-24T12:08:33;10.00;;;4.43;;
11829;SDS011;5972;42.134;24.718;2023-04-24T12:11:02;7.45;;;4.07;;
11829;SDS011;5972;42.134;24.718;2023-04-24T12:13:28;5.97;;;3.90;;
11829;SDS011;5972;42.134;24.718;2023-04-24T12:15:58;4.43;;;3.97;;
11829;SDS011;5972;42.134;24.718;2023-04-24T12:18:24;4.18;;;3.78;;
11829;SDS011;5972;42.134;24.718;2023-04-24T12:20:51;9.07;;;4.20;;
11829;SDS011;5972;42.134;24.718;2023-04-24T12:23:32;8.02;;;4.50;;
11829;SDS011;5972;42.134;24.718;2023-04-24T12:25:59;5.72;;;3.67;;
11829;SDS011;5972;42.134;24.718;2023-04-24T12:28:34;4.90;;;3.83;;
11829;SDS011;5972;42.134;24.718;2023-04-24T12:31:00;5.22;;;3.83;;
11829;SDS011;5972;42.134;24.718;2023-04-24T12:33:27;4.18;;;3.75;;
11829;SDS011;5972;42.134;24.718;2023-04-24T12:35:53;5.05;;;4.07;;
11829;SDS011;5972;42.134;24.718;2023-04-24T12:38:21;5.80;;;3.83;;
11829;SDS011;5972;42.134;24.718;2023-04-24T12:41:00;9.63;;;3.72;;
11829;SDS011;5972;42.134;24.718;2023-04-24T12:43:29;7.78;;;3.72;;
11829;SDS011;5972;42.134;24.718;2023-04-24T12:45:58;3.90;;;3.47;;
11829;SDS011;5972;42.134;24.718;2023-04-24T12:48:25;6.28;;;3.75;;
11829;SDS011;5972;42.134;24.718;2023-04-24T12:50:51;7.78;;;3.47;;
11829;SDS011;5972;42.134;24.718;2023-04-24T12:53:18;5.07;;;3.60;;
11829;SDS011;5972;42.134;24.718;2023-04-24T12:55:52;4.18;;;3.60;;
11829;SDS011;5972;42.134;24.718;2023-04-24T12:58:19;3.85;;;3.33;;
11829;SDS011;5972;42.134;24.718;2023-04-24T13:00:47;3.78;;;3.42;;
11829;SDS011;5972;42.134;24.718;2023-04-24T13:03:14;6.72;;;3.75;;
11829;SDS011;5972;42.134;24.718;2023-04-24T13:05:41;6.13;;;3.88;;
11829;SDS011;5972;42.134;24.718;2023-04-24T13:08:11;3.67;;;3.35;;
11829;SDS011;5972;42.134;24.718;2023-04-24T13:10:39;5.85;;;3.65;;
11829;SDS011;5972;42.134;24.718;2023-04-24T13:13:06;5.45;;;3.53;;
11829;SDS011;5972;42.134;24.718;2023-04-24T13:15:32;6.15;;;3.70;;
11829;SDS011;5972;42.134;24.718;2023-04-24T13:20:51;7.10;;;4.00;;
11829;SDS011;5972;42.134;24.718;2023-04-24T13:23:17;3.80;;;3.40;;
11829;SDS011;5972;42.134;24.718;2023-04-24T13:25:44;4.03;;;3.63;;
11829;SDS011;5972;42.134;24.718;2023-04-24T13:28:10;8.75;;;3.70;;
11829;SDS011;5972;42.134;24.718;2023-04-24T13:30:37;3.80;;;3.45;;
11829;SDS011;5972;42.134;24.718;2023-04-24T13:33:04;8.30;;;2.90;;
11829;SDS011;5972;42.134;24.718;2023-04-24T13:35:30;4.45;;;3.30;;
11829;SDS011;5972;42.134;24.718;2023-04-24T13:37:58;4.90;;;3.47;;
11829;SDS011;5972;42.134;24.718;2023-04-24T13:40:26;4.63;;;3.60;;
11829;SDS011;5972;42.134;24.718;2023-04-24T13:42:53;4.97;;;3.53;;
11829;SDS011;5972;42.134;24.718;2023-04-24T13:45:19;6.05;;;3.67;;
11829;SDS011;5972;42.134;24.718;2023-04-24T13:47:46;4.82;;;3.25;;
11829;SDS011;5972;42.134;24.718;2023-04-24T13:50:13;4.22;;;3.40;;
11829;SDS011;5972;42.134;24.718;2023-04-24T13:52:40;4.93;;;3.53;;
11829;SDS011;5972;42.134;24.718;2023-04-24T13:55:09;6.22;;;3.50;;
11829;SDS011;5972;42.134;24.718;2023-04-24T13:57:36;4.78;;;3.38;;
11829;SDS011;5972;42.134;24.718;2023-04-24T14:00:03;4.10;;;3.50;;
11829;SDS011;5972;42.134;24.718;2023-04-24T14:02:30;5.80;;;3.85;;
11829;SDS011;5972;42.134;24.718;2023-04-24T14:04:57;4.00;;;3.15;;
11829;SDS011;5972;42.134;24.718;2023-04-24T14:07:23;8.05;;;3.40;;
11829;SDS011;5972;42.134;24.718;2023-04-24T14:09:50;4.53;;;3.33;;
11829;SDS011;5972;42.134;24.718;2023-04-24T14:12:18;3.92;;;3.20;;
11829;SDS011;5972;42.134;24.718;2023-04-24T14:14:46;8.25;;;3.50;;
11829;SDS011;5972;42.134;24.718;2023-04-24T14:17:13;7.28;;;3.67;;
11829;SDS011;5972;42.134;24.718;2023-04-24T14:19:39;6.07;;;3.20;;
11829;SDS011;5972;42.134;24.718;2023-04-24T14:22:06;5.60;;;3.40;;
11829;SDS011;5972;42.134;24.718;2023-04-24T14:24:32;5.03;;;3.60;;
11829;SDS011;5972;42.134;24.718;2023-04-24T14:26:59;5.25;;;3.42;;
11829;SDS011;5972;42.134;24.718;2023-04-24T14:29:27;5.63;;;3.22;;
11829;SDS011;5972;42.134;24.718;2023-04-24T14:31:54;4.88;;;3.47;;
11829;SDS011;5972;42.134;24.718;2023-04-24T14:34:20;3.33;;;3.00;;
11829;SDS011;5972;42.134;24.718;2023-04-24T14:36:47;5.70;;;2.97;;
11829;SDS011;5972;42.134;24.718;2023-04-24T14:39:13;6.07;;;3.38;;
11829;SDS011;5972;42.134;24.718;2023-04-24T14:41:40;4.38;;;3.10;;
11829;SDS011;5972;42.134;24.718;2023-04-24T14:44:06;3.67;;;3.38;;
11829;SDS011;5972;42.134;24.718;2023-04-24T14:46:34;6.32;;;3.70;;
11829;SDS011;5972;42.134;24.718;2023-04-24T14:49:00;3.40;;;2.95;;
11829;SDS011;5972;42.134;24.718;2023-04-24T14:51:27;3.28;;;2.88;;